sensor_id;sensor_type;location;lat;lon;timestamp;pressure;altitude;pressure_sealevel;temperature;humidity
41250;BME280;26984;59.928;30.306;2023-02-21T00:02:42;99189.91;;;0.54;52.75
41250;BME280;26984;59.928;30.306;2023-02-21T00:05:27;99190.03;;;0.67;52.00
41250;BME280;26984;59.928;30.306;2023-02-21T00:08:11;99192.44;;;0.62;52.14
41250;BME280;26984;59.928;30.306;2023-02-21T00:10:56;99201.56;;;0.59;52.21
41250;BME280;26984;59.928;30.306;2023-02-21T00:13:41;99197.75;;;0.83;51.76
41250;BME280;26984;59.928;30.306;2023-02-21T00:16:25;99197.56;;;1.06;50.83
41250;BME280;26984;59.928;30.306;2023-02-21T00:19:11;99209.88;;;0.92;51.20
41250;BME280;26984;59.928;30.306;2023-02-21T00:21:56;99220.00;;;1.04;51.41
41250;BME280;26984;59.928;30.306;2023-02-21T00:24:41;99208.69;;;0.95;51.09
41250;BME280;26984;59.928;30.306;2023-02-21T00:27:26;99228.84;;;0.89;51.05
41250;BME280;26984;59.928;30.306;2023-02-21T00:30:11;99228.84;;;0.89;50.43
41250;BME280;26984;59.928;30.306;2023-02-21T00:32:57;99221.97;;;0.59;50.68
41250;BME280;26984;59.928;30.306;2023-02-21T00:35:43;99223.72;;;0.52;51.32
41250;BME280;26984;59.928;30.306;2023-02-21T00:38:29;99228.03;;;0.38;51.06
41250;BME280;26984;59.928;30.306;2023-02-21T00:41:14;99240.13;;;0.11;51.16
41250;BME280;26984;59.928;30.306;2023-02-21T00:43:58;99242.38;;;-0.16;51.10
41250;BME280;26984;59.928;30.306;2023-02-21T00:46:43;99238.59;;;-0.21;51.85
41250;BME280;26984;59.928;30.306;2023-02-21T00:49:28;99244.66;;;-0.13;51.47
41250;BME280;26984;59.928;30.306;2023-02-21T00:52:14;99238.66;;;-0.07;51.59
41250;BME280;26984;59.928;30.306;2023-02-21T00:54:59;99248.47;;;-0.15;51.00
41250;BME280;26984;59.928;30.306;2023-02-21T00:57:43;99254.47;;;-0.36;51.09
41250;BME280;26984;59.928;30.306;2023-02-21T01:00:28;99257.94;;;-0.74;51.36
41250;BME280;26984;59.928;30.306;2023-02-21T01:03:13;99262.44;;;-1.05;52.14
41250;BME280;26984;59.928;30.306;2023-02-21T01:05:57;99267.91;;;-1.38;51.77
41250;BME280;26984;59.928;30.306;2023-02-21T01:08:44;99271.53;;;-1.70;52.40
41250;BME280;26984;59.928;30.306;2023-02-21T01:11:31;99276.69;;;-1.85;53.58
41250;BME280;26984;59.928;30.306;2023-02-21T01:14:16;99279.22;;;-2.24;54.05
41250;BME280;26984;59.928;30.306;2023-02-21T01:17:00;99278.09;;;-2.30;54.17
41250;BME280;26984;59.928;30.306;2023-02-21T01:19:45;99279.88;;;-2.06;53.83
41250;BME280;26984;59.928;30.306;2023-02-21T01:22:33;99283.97;;;-2.03;53.88
41250;BME280;26984;59.928;30.306;2023-02-21T01:25:21;99288.31;;;-2.19;53.83
41250;BME280;26984;59.928;30.306;2023-02-21T01:28:06;99295.41;;;-2.19;52.98
41250;BME280;26984;59.928;30.306;2023-02-21T01:30:50;99294.09;;;-2.64;53.92
41250;BME280;26984;59.928;30.306;2023-02-21T01:33:36;99297.56;;;-2.55;54.18
41250;BME280;26984;59.928;30.306;2023-02-21T01:36:21;99299.16;;;-2.13;53.48
41250;BME280;26984;59.928;30.306;2023-02-21T01:39:05;99306.25;;;-1.98;52.91
41250;BME280;26984;59.928;30.306;2023-02-21T01:41:53;99308.88;;;-1.98;53.17
41250;BME280;26984;59.928;30.306;2023-02-21T01:44:38;99315.50;;;-2.18;53.55
41250;BME280;26984;59.928;30.306;2023-02-21T01:47:24;99312.84;;;-2.02;53.26
41250;BME280;26984;59.928;30.306;2023-02-21T01:50:12;99320.44;;;-1.99;52.37
41250;BME280;26984;59.928;30.306;2023-02-21T01:52:58;99319.47;;;-2.22;52.33
41250;BME280;26984;59.928;30.306;2023-02-21T01:55:44;99323.91;;;-2.14;52.65
41250;BME280;26984;59.928;30.306;2023-02-21T01:58:30;99330.34;;;-2.09;53.01
41250;BME280;26984;59.928;30.306;2023-02-21T02:01:19;99330.81;;;-1.97;51.70
41250;BME280;26984;59.928;30.306;2023-02-21T02:04:05;99340.41;;;-2.21;52.87
41250;BME280;26984;59.928;30.306;2023-02-21T02:06:50;99337.28;;;-2.16;52.36
41250;BME280;26984;59.928;30.306;2023-02-21T02:09:35;99347.69;;;-2.31;52.07
41250;BME280;26984;59.928;30.306;2023-02-21T02:12:34;99340.56;;;-2.55;52.86
41250;BME280;26984;59.928;30.306;2023-02-21T02:15:10;99350.28;;;-2.47;52.32
41250;BME280;26984;59.928;30.306;2023-02-21T02:17:46;99354.06;;;-2.58;52.70
41250;BME280;26984;59.928;30.306;2023-02-21T02:20:31;99350.13;;;-2.62;52.88
41250;BME280;26984;59.928;30.306;2023-02-21T02:25:55;99364.25;;;-2.79;53.00
41250;BME280;26984;59.928;30.306;2023-02-21T02:28:33;99372.16;;;-2.87;53.12
41250;BME280;26984;59.928;30.306;2023-02-21T02:31:18;99380.56;;;-2.84;53.22
41250;BME280;26984;59.928;30.306;2023-02-21T02:36:42;99391.16;;;-2.59;52.42
41250;BME280;26984;59.928;30.306;2023-02-21T02:39:16;99395.38;;;-2.83;52.44
41250;BME280;26984;59.928;30.306;2023-02-21T02:41:47;99398.34;;;-2.78;52.22
41250;BME280;26984;59.928;30.306;2023-02-21T02:44:20;99399.00;;;-2.84;52.70
41250;BME280;26984;59.928;30.306;2023-02-21T02:46:51;99409.19;;;-2.89;52.49
41250;BME280;26984;59.928;30.306;2023-02-21T02:49:20;99412.69;;;-2.80;52.40
41250;BME280;26984;59.928;30.306;2023-02-21T02:51:50;99425.31;;;-3.00;52.67
41250;BME280;26984;59.928;30.306;2023-02-21T02:54:21;99437.75;;;-3.19;53.19
41250;BME280;26984;59.928;30.306;2023-02-21T02:56:49;99438.72;;;-3.20;53.66
41250;BME280;26984;59.928;30.306;2023-02-21T02:59:18;99430.53;;;-3.08;53.65
41250;BME280;26984;59.928;30.306;2023-02-21T03:01:53;99451.81;;;-3.02;52.22
41250;BME280;26984;59.928;30.306;2023-02-21T03:04:27;99455.88;;;-3.16;52.50
41250;BME280;26984;59.928;30.306;2023-02-21T03:07:03;99460.25;;;-3.24;52.20
41250;BME280;26984;59.928;30.306;2023-02-21T03:09:36;99466.78;;;-3.37;52.60
41250;BME280;26984;59.928;30.306;2023-02-21T03:12:09;99470.63;;;-3.75;52.49
41250;BME280;26984;59.928;30.306;2023-02-21T03:14:43;99477.38;;;-3.72;53.21
41250;BME280;26984;59.928;30.306;2023-02-21T03:17:13;99481.75;;;-3.99;52.98
41250;BME280;26984;59.928;30.306;2023-02-21T03:19:46;99480.81;;;-3.98;53.74
41250;BME280;26984;59.928;30.306;2023-02-21T03:22:18;99488.75;;;-3.90;53.77
41250;BME280;26984;59.928;30.306;2023-02-21T03:24:47;99494.00;;;-3.72;53.71
41250;BME280;26984;59.928;30.306;2023-02-21T03:27:15;99499.72;;;-3.76;53.36
41250;BME280;26984;59.928;30.306;2023-02-21T03:29:52;99506.38;;;-3.46;53.26
41250;BME280;26984;59.928;30.306;2023-02-21T03:32:23;99511.50;;;-3.45;53.19
41250;BME280;26984;59.928;30.306;2023-02-21T03:34:50;99512.66;;;-3.39;52.59
41250;BME280;26984;59.928;30.306;2023-02-21T03:37:21;99516.53;;;-3.51;51.83
41250;BME280;26984;59.928;30.306;2023-02-21T03:39:54;99517.75;;;-4.17;52.12
41250;BME280;26984;59.928;30.306;2023-02-21T03:42:23;99524.44;;;-4.68;53.58
41250;BME280;26984;59.928;30.306;2023-02-21T03:44:51;99523.41;;;-4.95;54.09
41250;BME280;26984;59.928;30.306;2023-02-21T03:47:19;99525.88;;;-5.21;55.24
41250;BME280;26984;59.928;30.306;2023-02-21T03:49:47;99536.88;;;-5.08;55.23
41250;BME280;26984;59.928;30.306;2023-02-21T03:52:16;99536.88;;;-5.08;55.30
41250;BME280;26984;59.928;30.306;2023-02-21T03:54:45;99542.13;;;-4.98;55.10
41250;BME280;26984;59.928;30.306;2023-02-21T03:57:16;99545.41;;;-4.86;55.66
41250;BME280;26984;59.928;30.306;2023-02-21T03:59:45;99553.78;;;-4.73;55.18
41250;BME280;26984;59.928;30.306;2023-02-21T04:02:13;99554.16;;;-4.68;55.23
41250;BME280;26984;59.928;30.306;2023-02-21T04:04:41;99566.31;;;-4.67;55.18
41250;BME280;26984;59.928;30.306;2023-02-21T04:07:15;99574.81;;;-4.45;54.77
41250;BME280;26984;59.928;30.306;2023-02-21T04:09:45;99572.88;;;-4.43;53.81
41250;BME280;26984;59.928;30.306;2023-02-21T04:12:19;99578.66;;;-4.40;54.25
41250;BME280;26984;59.928;30.306;2023-02-21T04:14:48;99584.47;;;-4.36;54.12
41250;BME280;26984;59.928;30.306;2023-02-21T04:17:17;99587.84;;;-4.53;53.34
41250;BME280;26984;59.928;30.306;2023-02-21T04:19:45;99593.59;;;-4.77;53.82
41250;BME280;26984;59.928;30.306;2023-02-21T04:22:13;99595.94;;;-4.74;54.20
41250;BME280;26984;59.928;30.306;2023-02-21T04:24:40;99598.88;;;-4.77;54.01
41250;BME280;26984;59.928;30.306;2023-02-21T04:27:09;99609.13;;;-4.84;54.28
41250;BME280;26984;59.928;30.306;2023-02-21T04:29:39;99608.22;;;-5.12;54.27
41250;BME280;26984;59.928;30.306;2023-02-21T04:32:08;99614.84;;;-5.08;54.80
41250;BME280;26984;59.928;30.306;2023-02-21T04:34:36;99627.28;;;-5.10;54.89
41250;BME280;26984;59.928;30.306;2023-02-21T04:37:03;99629.25;;;-5.22;54.67
41250;BME280;26984;59.928;30.306;2023-02-21T04:39:31;99634.34;;;-5.11;54.55
41250;BME280;26984;59.928;30.306;2023-02-21T04:41:59;99643.47;;;-5.24;55.38
41250;BME280;26984;59.928;30.306;2023-02-21T04:44:30;99646.53;;;-5.29;55.40
41250;BME280;26984;59.928;30.306;2023-02-21T04:46:57;99649.81;;;-5.17;54.28
41250;BME280;26984;59.928;30.306;2023-02-21T04:49:25;99653.81;;;-5.13;54.95
41250;BME280;26984;59.928;30.306;2023-02-21T04:51:52;99658.53;;;-5.07;54.59
41250;BME280;26984;59.928;30.306;2023-02-21T04:54:20;99653.28;;;-5.26;53.92
41250;BME280;26984;59.928;30.306;2023-02-21T04:56:47;99662.13;;;-5.27;55.33
41250;BME280;26984;59.928;30.306;2023-02-21T04:59:15;99670.72;;;-5.16;54.82
41250;BME280;26984;59.928;30.306;2023-02-21T05:01:43;99670.00;;;-5.08;54.60
41250;BME280;26984;59.928;30.306;2023-02-21T05:04:11;99676.91;;;-5.26;54.04
41250;BME280;26984;59.928;30.306;2023-02-21T05:06:38;99688.81;;;-5.32;54.83
41250;BME280;26984;59.928;30.306;2023-02-21T05:09:06;99685.09;;;-5.30;53.37
41250;BME280;26984;59.928;30.306;2023-02-21T05:11:33;99695.56;;;-5.39;54.59
41250;BME280;26984;59.928;30.306;2023-02-21T05:14:01;99702.97;;;-5.73;54.65
41250;BME280;26984;59.928;30.306;2023-02-21T05:16:29;99710.13;;;-5.85;54.65
41250;BME280;26984;59.928;30.306;2023-02-21T05:18:58;99716.16;;;-6.04;55.54
41250;BME280;26984;59.928;30.306;2023-02-21T05:21:27;99720.53;;;-6.45;55.73
41250;BME280;26984;59.928;30.306;2023-02-21T05:23:55;99727.97;;;-6.71;56.77
41250;BME280;26984;59.928;30.306;2023-02-21T05:26:23;99729.94;;;-6.63;56.87
41250;BME280;26984;59.928;30.306;2023-02-21T05:28:51;99744.59;;;-6.61;57.43
41250;BME280;26984;59.928;30.306;2023-02-21T05:31:19;99731.41;;;-6.70;56.75
41250;BME280;26984;59.928;30.306;2023-02-21T05:33:46;99750.97;;;-6.75;57.07
41250;BME280;26984;59.928;30.306;2023-02-21T05:36:15;99752.66;;;-7.06;57.54
41250;BME280;26984;59.928;30.306;2023-02-21T05:38:43;99754.31;;;-7.05;58.08
41250;BME280;26984;59.928;30.306;2023-02-21T05:41:11;99757.16;;;-7.29;58.90
41250;BME280;26984;59.928;30.306;2023-02-21T05:43:39;99757.75;;;-7.48;58.65
41250;BME280;26984;59.928;30.306;2023-02-21T05:46:06;99764.50;;;-7.34;59.15
41250;BME280;26984;59.928;30.306;2023-02-21T05:48:34;99784.06;;;-7.49;59.78
41250;BME280;26984;59.928;30.306;2023-02-21T05:51:01;99773.53;;;-7.27;58.80
41250;BME280;26984;59.928;30.306;2023-02-21T05:53:30;99776.75;;;-6.91;59.51
41250;BME280;26984;59.928;30.306;2023-02-21T05:55:57;99793.19;;;-6.68;58.06
41250;BME280;26984;59.928;30.306;2023-02-21T05:58:25;99799.41;;;-6.48;58.10
41250;BME280;26984;59.928;30.306;2023-02-21T06:00:52;99801.66;;;-6.22;57.35
41250;BME280;26984;59.928;30.306;2023-02-21T06:03:20;99811.22;;;-6.12;56.21
41250;BME280;26984;59.928;30.306;2023-02-21T06:05:48;99807.56;;;-6.20;55.83
41250;BME280;26984;59.928;30.306;2023-02-21T06:08:15;99811.56;;;-6.26;56.29
41250;BME280;26984;59.928;30.306;2023-02-21T06:10:44;99822.22;;;-6.39;56.33
41250;BME280;26984;59.928;30.306;2023-02-21T06:13:12;99823.75;;;-6.57;56.64
41250;BME280;26984;59.928;30.306;2023-02-21T06:15:39;99830.19;;;-6.40;56.04
41250;BME280;26984;59.928;30.306;2023-02-21T06:18:07;99831.06;;;-6.40;57.12
41250;BME280;26984;59.928;30.306;2023-02-21T06:20:34;99828.03;;;-6.14;56.21
41250;BME280;26984;59.928;30.306;2023-02-21T06:23:02;99835.66;;;-6.11;55.73
41250;BME280;26984;59.928;30.306;2023-02-21T06:25:29;99832.91;;;-6.31;55.86
41250;BME280;26984;59.928;30.306;2023-02-21T06:27:58;99843.38;;;-6.31;55.76
41250;BME280;26984;59.928;30.306;2023-02-21T06:30:25;99842.16;;;-6.27;55.90
41250;BME280;26984;59.928;30.306;2023-02-21T06:32:53;99856.25;;;-6.28;56.63
41250;BME280;26984;59.928;30.306;2023-02-21T06:35:20;99858.34;;;-6.00;56.11
41250;BME280;26984;59.928;30.306;2023-02-21T06:37:48;99870.72;;;-5.51;55.38
41250;BME280;26984;59.928;30.306;2023-02-21T06:40:17;99860.50;;;-5.44;53.92
41250;BME280;26984;59.928;30.306;2023-02-21T06:42:45;99872.38;;;-5.50;54.33
41250;BME280;26984;59.928;30.306;2023-02-21T06:45:14;99883.28;;;-5.45;53.95
41250;BME280;26984;59.928;30.306;2023-02-21T06:47:42;99890.03;;;-5.52;54.09
41250;BME280;26984;59.928;30.306;2023-02-21T06:50:09;99889.13;;;-5.41;54.31
41250;BME280;26984;59.928;30.306;2023-02-21T06:52:36;99897.19;;;-5.33;53.88
41250;BME280;26984;59.928;30.306;2023-02-21T06:55:04;99899.59;;;-5.11;54.17
41250;BME280;26984;59.928;30.306;2023-02-21T06:57:32;99900.09;;;-4.86;53.38
41250;BME280;26984;59.928;30.306;2023-02-21T06:59:59;99899.44;;;-4.49;53.20
41250;BME280;26984;59.928;30.306;2023-02-21T07:02:29;99908.44;;;-4.23;52.29
41250;BME280;26984;59.928;30.306;2023-02-21T07:04:56;99911.19;;;-4.05;51.42
41250;BME280;26984;59.928;30.306;2023-02-21T07:07:23;99908.44;;;-4.23;50.90
41250;BME280;26984;59.928;30.306;2023-02-21T07:09:51;99924.63;;;-4.27;51.21
41250;BME280;26984;59.928;30.306;2023-02-21T07:12:18;99930.84;;;-4.28;51.41
41250;BME280;26984;59.928;30.306;2023-02-21T07:14:46;99936.41;;;-4.22;51.42
41250;BME280;26984;59.928;30.306;2023-02-21T07:17:13;99935.56;;;-4.13;51.13
41250;BME280;26984;59.928;30.306;2023-02-21T07:19:42;99939.44;;;-4.07;50.68
41250;BME280;26984;59.928;30.306;2023-02-21T07:22:10;99953.97;;;-4.03;50.47
41250;BME280;26984;59.928;30.306;2023-02-21T07:24:37;99950.94;;;-4.08;50.47
41250;BME280;26984;59.928;30.306;2023-02-21T07:27:06;99958.28;;;-4.12;49.66
41250;BME280;26984;59.928;30.306;2023-02-21T07:29:33;99968.19;;;-4.54;50.06
41250;BME280;26984;59.928;30.306;2023-02-21T07:32:01;99969.41;;;-4.68;50.72
41250;BME280;26984;59.928;30.306;2023-02-21T07:34:28;99983.63;;;-4.70;50.95
41250;BME280;26984;59.928;30.306;2023-02-21T07:36:57;99979.19;;;-4.79;50.67
41250;BME280;26984;59.928;30.306;2023-02-21T07:39:25;99982.63;;;-4.89;50.80
41250;BME280;26984;59.928;30.306;2023-02-21T07:41:52;99994.41;;;-5.14;51.43
41250;BME280;26984;59.928;30.306;2023-02-21T07:44:28;99993.19;;;-5.10;51.86
41250;BME280;26984;59.928;30.306;2023-02-21T07:46:55;99994.66;;;-5.17;51.73
41250;BME280;26984;59.928;30.306;2023-02-21T07:49:23;99988.72;;;-5.19;51.20
41250;BME280;26984;59.928;30.306;2023-02-21T07:51:50;100015.00;;;-5.09;51.95
41250;BME280;26984;59.928;30.306;2023-02-21T07:54:19;100015.31;;;-5.12;51.68
41250;BME280;26984;59.928;30.306;2023-02-21T07:56:48;100021.06;;;-5.18;51.60
41250;BME280;26984;59.928;30.306;2023-02-21T07:59:17;100021.41;;;-5.33;52.52
41250;BME280;26984;59.928;30.306;2023-02-21T08:01:44;100032.84;;;-5.13;52.84
41250;BME280;26984;59.928;30.306;2023-02-21T08:04:12;100023.09;;;-5.01;52.24
41250;BME280;26984;59.928;30.306;2023-02-21T08:06:39;100035.94;;;-4.67;52.12
41250;BME280;26984;59.928;30.306;2023-02-21T08:09:07;100032.97;;;-4.43;52.01
41250;BME280;26984;59.928;30.306;2023-02-21T08:11:36;100033.75;;;-4.12;51.73
41250;BME280;26984;59.928;30.306;2023-02-21T08:14:05;100041.09;;;-3.87;51.15
41250;BME280;26984;59.928;30.306;2023-02-21T08:16:32;100037.63;;;-3.58;49.80
41250;BME280;26984;59.928;30.306;2023-02-21T08:19:00;100049.09;;;-3.49;49.81
41250;BME280;26984;59.928;30.306;2023-02-21T08:21:27;100048.81;;;-3.37;49.53
41250;BME280;26984;59.928;30.306;2023-02-21T08:23:55;100061.72;;;-3.43;50.07
41250;BME280;26984;59.928;30.306;2023-02-21T08:26:22;100069.47;;;-3.42;49.46
41250;BME280;26984;59.928;30.306;2023-02-21T08:28:51;100069.34;;;-3.40;48.79
41250;BME280;26984;59.928;30.306;2023-02-21T08:31:19;100073.22;;;-3.54;49.20
41250;BME280;26984;59.928;30.306;2023-02-21T08:33:46;100070.28;;;-3.31;49.51
41250;BME280;26984;59.928;30.306;2023-02-21T08:36:14;100076.81;;;-3.16;49.57
41250;BME280;26984;59.928;30.306;2023-02-21T08:38:41;100083.34;;;-3.40;49.06
41250;BME280;26984;59.928;30.306;2023-02-21T08:41:09;100100.66;;;-3.18;48.73
41250;BME280;26984;59.928;30.306;2023-02-21T08:43:36;100093.81;;;-3.01;49.03
41250;BME280;26984;59.928;30.306;2023-02-21T08:46:05;100104.38;;;-3.10;48.40
41250;BME280;26984;59.928;30.306;2023-02-21T08:48:34;100108.03;;;-3.41;48.63
41250;BME280;26984;59.928;30.306;2023-02-21T08:51:02;100107.75;;;-3.38;49.48
41250;BME280;26984;59.928;30.306;2023-02-21T08:53:29;100118.38;;;-3.10;49.65
41250;BME280;26984;59.928;30.306;2023-02-21T08:55:56;100110.28;;;-2.79;49.01
41250;BME280;26984;59.928;30.306;2023-02-21T08:58:24;100115.19;;;-2.94;48.05
41250;BME280;26984;59.928;30.306;2023-02-21T09:00:51;100124.91;;;-2.95;48.17
41250;BME280;26984;59.928;30.306;2023-02-21T09:03:20;100126.88;;;-3.16;48.54
41250;BME280;26984;59.928;30.306;2023-02-21T09:05:48;100127.69;;;-3.54;48.36
41250;BME280;26984;59.928;30.306;2023-02-21T09:08:15;100132.66;;;-3.80;49.63
41250;BME280;26984;59.928;30.306;2023-02-21T09:10:45;100137.34;;;-3.94;49.84
41250;BME280;26984;59.928;30.306;2023-02-21T09:13:14;100135.13;;;-3.98;50.19
41250;BME280;26984;59.928;30.306;2023-02-21T09:15:41;100141.44;;;-4.11;50.42
41250;BME280;26984;59.928;30.306;2023-02-21T09:18:09;100141.06;;;-3.96;50.42
41250;BME280;26984;59.928;30.306;2023-02-21T09:20:39;100137.94;;;-4.21;50.47
41250;BME280;26984;59.928;30.306;2023-02-21T09:23:07;100145.63;;;-4.39;51.35
41250;BME280;26984;59.928;30.306;2023-02-21T09:25:35;100142.91;;;-4.37;51.34
41250;BME280;26984;59.928;30.306;2023-02-21T09:28:02;100147.50;;;-4.29;51.42
41250;BME280;26984;59.928;30.306;2023-02-21T09:30:30;100131.19;;;-4.14;51.46
41250;BME280;26984;59.928;30.306;2023-02-21T09:32:57;100137.28;;;-4.13;51.37
41250;BME280;26984;59.928;30.306;2023-02-21T09:35:25;100149.13;;;-3.98;51.16
41250;BME280;26984;59.928;30.306;2023-02-21T09:37:56;100157.19;;;-3.70;51.21
41250;BME280;26984;59.928;30.306;2023-02-21T09:40:27;100155.81;;;-3.45;50.17
41250;BME280;26984;59.928;30.306;2023-02-21T09:42:59;100163.19;;;-3.10;50.50
41250;BME280;26984;59.928;30.306;2023-02-21T09:45:29;100169.09;;;-2.79;50.11
41250;BME280;26984;59.928;30.306;2023-02-21T09:47:58;100171.00;;;-2.52;48.78
41250;BME280;26984;59.928;30.306;2023-02-21T09:50:28;100176.94;;;-2.50;47.88
41250;BME280;26984;59.928;30.306;2023-02-21T09:53:00;100180.22;;;-2.85;47.52
41250;BME280;26984;59.928;30.306;2023-02-21T09:55:29;100174.28;;;-2.97;48.89
41250;BME280;26984;59.928;30.306;2023-02-21T09:57:57;100178.44;;;-3.04;48.92
41250;BME280;26984;59.928;30.306;2023-02-21T10:00:26;100181.34;;;-2.87;48.88
41250;BME280;26984;59.928;30.306;2023-02-21T10:02:57;100182.19;;;-2.87;49.10
41250;BME280;26984;59.928;30.306;2023-02-21T10:05:31;100171.13;;;-2.53;49.27
41250;BME280;26984;59.928;30.306;2023-02-21T10:08:03;100168.59;;;-2.08;49.42
41250;BME280;26984;59.928;30.306;2023-02-21T10:10:33;100172.78;;;-2.05;46.76
41250;BME280;26984;59.928;30.306;2023-02-21T10:13:06;100179.75;;;-2.14;46.69
41250;BME280;26984;59.928;30.306;2023-02-21T10:15:39;100176.19;;;-2.23;47.63
41250;BME280;26984;59.928;30.306;2023-02-21T10:18:18;100183.09;;;-2.22;47.54
41250;BME280;26984;59.928;30.306;2023-02-21T10:20:48;100192.94;;;-2.51;47.37
41250;BME280;26984;59.928;30.306;2023-02-21T10:23:20;100197.00;;;-2.86;47.22
41250;BME280;26984;59.928;30.306;2023-02-21T10:25:50;100198.69;;;-3.14;47.59
41250;BME280;26984;59.928;30.306;2023-02-21T10:28:20;100203.94;;;-3.43;48.69
41250;BME280;26984;59.928;30.306;2023-02-21T10:30:48;100211.00;;;-3.53;48.62
41250;BME280;26984;59.928;30.306;2023-02-21T10:33:17;100206.25;;;-3.69;49.18
41250;BME280;26984;59.928;30.306;2023-02-21T10:35:45;100217.69;;;-3.90;49.94
41250;BME280;26984;59.928;30.306;2023-02-21T10:38:13;100226.91;;;-3.65;50.23
41250;BME280;26984;59.928;30.306;2023-02-21T10:40:44;100217.38;;;-3.46;49.58
41250;BME280;26984;59.928;30.306;2023-02-21T10:43:14;100224.47;;;-3.37;49.65
41250;BME280;26984;59.928;30.306;2023-02-21T10:45:44;100224.59;;;-3.39;49.71
41250;BME280;26984;59.928;30.306;2023-02-21T10:48:12;100232.94;;;-3.04;49.95
41250;BME280;26984;59.928;30.306;2023-02-21T10:51:10;100235.69;;;-2.67;48.63
41250;BME280;26984;59.928;30.306;2023-02-21T10:53:38;100236.41;;;-2.75;48.49
41250;BME280;26984;59.928;30.306;2023-02-21T10:56:07;100241.00;;;-2.86;49.10
41250;BME280;26984;59.928;30.306;2023-02-21T10:58:35;100241.56;;;-3.12;48.00
41250;BME280;26984;59.928;30.306;2023-02-21T11:01:09;100246.66;;;-3.30;48.93
41250;BME280;26984;59.928;30.306;2023-02-21T11:03:41;100247.63;;;-3.31;48.88
41250;BME280;26984;59.928;30.306;2023-02-21T11:06:11;100251.34;;;-3.43;49.28
41250;BME280;26984;59.928;30.306;2023-02-21T11:08:47;100257.97;;;-3.58;49.16
41250;BME280;26984;59.928;30.306;2023-02-21T11:11:14;100244.31;;;-3.83;49.63
41250;BME280;26984;59.928;30.306;2023-02-21T11:13:42;100255.41;;;-3.79;50.06
41250;BME280;26984;59.928;30.306;2023-02-21T11:16:10;100258.91;;;-3.69;49.66
41250;BME280;26984;59.928;30.306;2023-02-21T11:18:38;100272.00;;;-4.19;50.22
41250;BME280;26984;59.928;30.306;2023-02-21T11:21:11;100267.25;;;-4.46;51.79
41250;BME280;26984;59.928;30.306;2023-02-21T11:23:42;100266.78;;;-4.30;51.97
41250;BME280;26984;59.928;30.306;2023-02-21T11:26:11;100265.78;;;-3.88;51.85
41250;BME280;26984;59.928;30.306;2023-02-21T11:28:39;100270.75;;;-3.34;50.94
41250;BME280;26984;59.928;30.306;2023-02-21T11:31:13;100278.59;;;-3.04;50.23
41250;BME280;26984;59.928;30.306;2023-02-21T11:33:43;100279.84;;;-2.89;48.81
41250;BME280;26984;59.928;30.306;2023-02-21T11:36:16;100287.19;;;-2.92;49.03
41250;BME280;26984;59.928;30.306;2023-02-21T11:38:58;100291.75;;;-3.04;49.24
41250;BME280;26984;59.928;30.306;2023-02-21T11:41:26;100294.84;;;-2.99;49.43
41250;BME280;26984;59.928;30.306;2023-02-21T11:43:54;100302.91;;;-2.81;49.82
41250;BME280;26984;59.928;30.306;2023-02-21T11:46:33;100296.34;;;-2.48;49.87
41250;BME280;26984;59.928;30.306;2023-02-21T11:49:04;100301.16;;;-2.14;49.11
41250;BME280;26984;59.928;30.306;2023-02-21T11:51:37;100310.41;;;-1.90;49.29
41250;BME280;26984;59.928;30.306;2023-02-21T11:54:06;100315.19;;;-1.66;47.55
41250;BME280;26984;59.928;30.306;2023-02-21T11:56:38;100308.13;;;-1.76;47.81
41250;BME280;26984;59.928;30.306;2023-02-21T11:59:22;100323.34;;;-1.97;48.22
41250;BME280;26984;59.928;30.306;2023-02-21T12:01:55;100329.72;;;-1.90;48.19
41250;BME280;26984;59.928;30.306;2023-02-21T12:04:36;100331.25;;;-1.87;47.42
41250;BME280;26984;59.928;30.306;2023-02-21T12:07:14;100330.59;;;-1.99;47.00
41250;BME280;26984;59.928;30.306;2023-02-21T12:09:44;100336.81;;;-2.00;47.71
41250;BME280;26984;59.928;30.306;2023-02-21T12:12:20;100330.72;;;-2.10;48.54
41250;BME280;26984;59.928;30.306;2023-02-21T12:14:59;100339.91;;;-2.24;48.30
41250;BME280;26984;59.928;30.306;2023-02-21T12:17:41;100339.25;;;-2.36;48.55
41250;BME280;26984;59.928;30.306;2023-02-21T12:20:23;100341.75;;;-2.73;49.84
41250;BME280;26984;59.928;30.306;2023-02-21T12:23:00;100347.59;;;-2.70;49.71
41250;BME280;26984;59.928;30.306;2023-02-21T12:25:30;100355.75;;;-2.82;49.85
41250;BME280;26984;59.928;30.306;2023-02-21T12:28:06;100354.88;;;-2.93;50.10
41250;BME280;26984;59.928;30.306;2023-02-21T12:30:42;100361.00;;;-2.82;50.56
41250;BME280;26984;59.928;30.306;2023-02-21T12:33:16;100359.94;;;-2.70;50.13
41250;BME280;26984;59.928;30.306;2023-02-21T12:35:51;100365.22;;;-2.70;50.13
41250;BME280;26984;59.928;30.306;2023-02-21T12:38:30;100369.50;;;-2.79;49.65
41250;BME280;26984;59.928;30.306;2023-02-21T12:41:04;100373.44;;;-3.14;50.59
41250;BME280;26984;59.928;30.306;2023-02-21T12:43:37;100379.75;;;-3.66;51.03
41250;BME280;26984;59.928;30.306;2023-02-21T12:46:11;100380.94;;;-3.80;51.86
41250;BME280;26984;59.928;30.306;2023-02-21T12:48:43;100386.69;;;-3.86;52.24
41250;BME280;26984;59.928;30.306;2023-02-21T12:51:13;100400.00;;;-3.88;52.74
41250;BME280;26984;59.928;30.306;2023-02-21T12:53:45;100394.84;;;-3.89;53.20
41250;BME280;26984;59.928;30.306;2023-02-21T12:56:16;100394.59;;;-4.07;53.57
41250;BME280;26984;59.928;30.306;2023-02-21T12:58:45;100414.22;;;-4.11;53.26
41250;BME280;26984;59.928;30.306;2023-02-21T13:01:16;100422.28;;;-4.13;54.51
41250;BME280;26984;59.928;30.306;2023-02-21T13:03:49;100422.28;;;-4.13;54.92
41250;BME280;26984;59.928;30.306;2023-02-21T13:06:18;100431.72;;;-4.21;55.45
41250;BME280;26984;59.928;30.306;2023-02-21T13:08:58;100428.97;;;-4.41;56.19
41250;BME280;26984;59.928;30.306;2023-02-21T13:11:30;100444.16;;;-4.44;56.34
41250;BME280;26984;59.928;30.306;2023-02-21T13:13:58;100452.94;;;-4.34;56.23
41250;BME280;26984;59.928;30.306;2023-02-21T13:16:26;100456.78;;;-4.38;56.47
41250;BME280;26984;59.928;30.306;2023-02-21T13:18:55;100459.28;;;-4.37;56.15